createdAt,value
2023-07-06T00:01:52.479Z,69.46
2023-07-06T00:04:23.922Z,69.37
2023-07-06T00:06:57.313Z,69.58
2023-07-06T00:09:28.043Z,69.60
2023-07-06T00:11:58.628Z,69.58
2023-07-06T00:14:30.099Z,69.69
2023-07-06T00:17:13.821Z,69.74
2023-07-06T00:19:48.200Z,69.77
2023-07-06T00:22:19.768Z,69.65
2023-07-06T00:24:50.377Z,69.70
2023-07-06T00:27:21.885Z,69.81
2023-07-06T00:30:08.541Z,69.83
2023-07-06T00:32:39.101Z,69.94
2023-07-06T00:35:12.427Z,70.01
2023-07-06T00:37:41.660Z,70.09
2023-07-06T00:40:15.549Z,70.10
2023-07-06T00:42:46.877Z,69.98
2023-07-06T00:45:18.289Z,69.80
2023-07-06T00:47:53.662Z,69.93
2023-07-06T00:50:29.176Z,70.01
2023-07-06T00:53:05.597Z,70.14
2023-07-06T00:55:41.900Z,70.12
2023-07-06T00:58:19.480Z,70.15
2023-07-06T01:00:51.124Z,70.03
2023-07-06T01:03:23.675Z,70.16
2023-07-06T01:06:00.021Z,70.19
2023-07-06T01:08:31.593Z,70.28
2023-07-06T01:11:02.189Z,70.34
2023-07-06T01:13:34.990Z,70.24
2023-07-06T01:16:14.813Z,70.24
2023-07-06T01:19:03.697Z,70.14
2023-07-06T01:21:43.262Z,70.44
2023-07-06T01:24:41.490Z,70.27
2023-07-06T01:27:37.957Z,70.32
2023-07-06T01:30:42.012Z,70.34
2023-07-06T01:33:17.210Z,70.45
2023-07-06T01:35:57.188Z,70.54
2023-07-06T01:38:28.699Z,70.68
2023-07-06T01:41:01.198Z,70.73
2023-07-06T01:43:32.064Z,70.74
2023-07-06T01:46:03.930Z,70.78
2023-07-06T01:48:34.599Z,70.73
2023-07-06T01:51:23.919Z,70.73
2023-07-06T01:54:01.494Z,70.85
2023-07-06T01:56:39.754Z,70.79
2023-07-06T01:59:14.920Z,70.84
2023-07-06T02:01:49.684Z,70.89
2023-07-06T02:04:22.136Z,70.94
2023-07-06T02:06:55.119Z,71.01
2023-07-06T02:09:25.713Z,70.89
2023-07-06T02:11:56.573Z,71.01
2023-07-06T02:14:27.372Z,71.19
2023-07-06T02:16:58.042Z,71.09
2023-07-06T02:19:28.611Z,71.08
2023-07-06T02:21:59.173Z,71.18
2023-07-06T02:24:29.812Z,71.14
2023-07-06T02:27:00.380Z,71.25
2023-07-06T02:29:31.988Z,71.36
2023-07-06T02:32:02.762Z,71.39
2023-07-06T02:34:33.281Z,71.28
2023-07-06T02:37:04.580Z,71.29
2023-07-06T02:39:35.173Z,71.56
2023-07-06T02:42:07.020Z,71.60
2023-07-06T02:44:36.042Z,71.70
2023-07-06T02:47:06.979Z,71.63
2023-07-06T02:49:47.509Z,71.59
2023-07-06T02:52:18.699Z,71.54
2023-07-06T02:54:49.640Z,71.94
2023-07-06T02:57:20.473Z,71.70
2023-07-06T02:59:52.295Z,71.69
2023-07-06T03:02:24.642Z,71.80
2023-07-06T03:04:55.358Z,71.52
2023-07-06T03:07:27.070Z,71.65
2023-07-06T03:09:58.350Z,71.75
2023-07-06T03:12:31.296Z,71.93
2023-07-06T03:15:06.854Z,71.98
2023-07-06T03:17:37.711Z,71.64
2023-07-06T03:20:15.767Z,71.70
2023-07-06T03:22:47.353Z,71.81
2023-07-06T03:25:19.707Z,72.23
2023-07-06T03:27:51.995Z,71.94
2023-07-06T03:30:28.659Z,71.86
2023-07-06T03:33:00.770Z,71.84
2023-07-06T03:35:32.241Z,71.68
2023-07-06T03:38:02.993Z,72.04
2023-07-06T03:40:33.890Z,71.88
2023-07-06T03:43:10.390Z,72.13
2023-07-06T03:45:43.009Z,71.96
2023-07-06T03:48:18.236Z,72.15
2023-07-06T03:50:52.172Z,71.97
2023-07-06T03:53:23.115Z,71.89
2023-07-06T03:55:58.894Z,71.95
2023-07-06T03:58:40.088Z,72.08
2023-07-06T04:01:15.304Z,71.95
2023-07-06T04:03:50.404Z,72.07
2023-07-06T04:06:25.807Z,72.14
2023-07-06T04:08:59.214Z,72.05
2023-07-06T04:11:30.112Z,72.20
2023-07-06T04:14:00.924Z,72.07
2023-07-06T04:16:32.414Z,72.12
2023-07-06T04:19:04.032Z,72.16
2023-07-06T04:21:34.786Z,72.09
2023-07-06T04:24:06.701Z,72.22
2023-07-06T04:26:38.598Z,72.39
2023-07-06T04:29:11.550Z,72.56
2023-07-06T04:31:42.538Z,72.54
2023-07-06T04:34:13.876Z,72.72
2023-07-06T04:36:47.195Z,72.80
2023-07-06T04:39:18.149Z,72.76
2023-07-06T04:41:56.499Z,73.05
2023-07-06T04:44:27.293Z,73.24
2023-07-06T04:47:00.802Z,73.23
2023-07-06T04:49:32.846Z,73.33
2023-07-06T04:52:05.855Z,73.47
2023-07-06T04:54:37.939Z,73.48
2023-07-06T04:57:09.372Z,73.60
2023-07-06T04:59:42.303Z,73.64
2023-07-06T05:02:18.833Z,73.71
2023-07-06T05:05:02.392Z,73.87
2023-07-06T05:07:36.704Z,73.79
2023-07-06T05:10:12.349Z,73.93
2023-07-06T05:12:45.805Z,73.78
2023-07-06T05:15:20.231Z,73.87
2023-07-06T05:17:55.422Z,73.96
2023-07-06T05:20:27.595Z,73.87
2023-07-06T05:22:58.939Z,73.73
2023-07-06T05:25:30.023Z,73.64
2023-07-06T05:28:01.237Z,73.70
2023-07-06T05:30:44.942Z,73.65
2023-07-06T05:33:16.679Z,73.47
2023-07-06T05:35:52.794Z,73.56
2023-07-06T05:38:24.693Z,73.28
2023-07-06T05:40:56.520Z,73.27
2023-07-06T05:43:30.692Z,73.28
2023-07-06T05:46:19.621Z,73.53
2023-07-06T05:49:13.763Z,73.28
2023-07-06T05:51:56.399Z,73.19
2023-07-06T05:54:39.564Z,73.04
2023-07-06T05:57:29.414Z,72.81
2023-07-06T06:00:15.598Z,72.91
2023-07-06T06:02:47.170Z,72.69
2023-07-06T06:05:45.072Z,72.48
2023-07-06T06:08:19.665Z,72.44
2023-07-06T06:10:51.990Z,72.22
2023-07-06T06:13:41.423Z,72.18
2023-07-06T06:16:13.427Z,71.82
2023-07-06T06:18:55.182Z,71.58
2023-07-06T06:22:05.813Z,71.33
2023-07-06T06:24:56.937Z,70.92
2023-07-06T06:28:09.043Z,70.78
2023-07-06T06:30:53.024Z,70.58
2023-07-06T06:33:24.046Z,70.50
2023-07-06T06:35:57.194Z,70.04
2023-07-06T06:38:28.321Z,69.91
2023-07-06T06:41:01.209Z,69.67
2023-07-06T06:43:31.833Z,69.37
2023-07-06T06:46:02.411Z,69.40
2023-07-06T06:48:33.701Z,68.67
2023-07-06T06:51:05.952Z,68.65
2023-07-06T06:53:39.232Z,68.48
2023-07-06T06:56:10.788Z,68.39
2023-07-06T06:58:44.659Z,68.06
2023-07-06T07:01:16.362Z,67.81
2023-07-06T07:03:47.252Z,67.46
2023-07-06T07:06:18.665Z,67.12
2023-07-06T07:08:51.418Z,66.77
2023-07-06T07:11:24.526Z,66.63
2023-07-06T07:13:56.233Z,66.40
2023-07-06T07:16:27.012Z,65.66
2023-07-06T07:18:57.770Z,64.69
2023-07-06T07:21:28.390Z,64.73
2023-07-06T07:23:58.912Z,64.12
2023-07-06T07:26:31.039Z,63.65
2023-07-06T07:29:03.932Z,62.91
2023-07-06T07:31:34.633Z,62.97
2023-07-06T07:34:06.175Z,61.45
2023-07-06T07:36:37.608Z,60.55
2023-07-06T07:39:09.538Z,60.79
2023-07-06T07:41:43.976Z,59.71
2023-07-06T07:44:16.544Z,60.18
2023-07-06T07:46:47.219Z,60.05
2023-07-06T07:49:19.093Z,59.63
2023-07-06T07:51:49.677Z,59.07
2023-07-06T07:54:20.627Z,58.69
2023-07-06T07:56:55.143Z,58.51
2023-07-06T07:59:25.844Z,57.95
2023-07-06T08:01:59.705Z,57.75
2023-07-06T08:04:33.638Z,56.81
2023-07-06T08:07:04.302Z,56.92
2023-07-06T08:09:35.031Z,55.23
2023-07-06T08:12:06.882Z,54.83
2023-07-06T08:14:40.307Z,53.37
2023-07-06T08:17:13.923Z,54.24
2023-07-06T08:20:14.780Z,52.26
2023-07-06T08:22:37.385Z,51.00
2023-07-06T08:25:12.918Z,49.99
2023-07-06T08:27:43.681Z,49.87
2023-07-06T08:30:14.818Z,50.62
2023-07-06T08:32:47.160Z,50.07
2023-07-06T08:35:18.400Z,50.66
2023-07-06T08:37:49.340Z,50.05
2023-07-06T08:40:21.268Z,49.40
2023-07-06T08:42:51.879Z,49.07
2023-07-06T08:45:24.291Z,48.48
2023-07-06T08:47:57.605Z,48.18
2023-07-06T08:50:32.097Z,48.15
2023-07-06T08:53:06.393Z,46.92
2023-07-06T08:55:37.509Z,46.54
2023-07-06T08:58:09.395Z,46.59
2023-07-06T09:00:41.721Z,46.70
2023-07-06T09:03:15.672Z,46.29
2023-07-06T09:05:49.107Z,45.76
2023-07-06T09:08:25.453Z,45.41
2023-07-06T09:11:02.965Z,45.04
2023-07-06T09:13:52.370Z,45.68
2023-07-06T09:16:24.480Z,44.01
2023-07-06T09:18:56.301Z,43.82
2023-07-06T09:21:28.002Z,43.88
2023-07-06T09:24:01.073Z,43.69
2023-07-06T09:26:36.226Z,43.37
2023-07-06T09:29:20.687Z,43.28
2023-07-06T09:31:51.741Z,43.98
2023-07-06T09:34:34.776Z,44.70
2023-07-06T09:37:06.102Z,44.90
2023-07-06T09:39:36.643Z,44.43
2023-07-06T09:42:10.873Z,42.93
2023-07-06T09:44:44.264Z,41.96
2023-07-06T09:47:16.679Z,42.47
2023-07-06T09:49:53.841Z,41.74
2023-07-06T09:52:26.054Z,42.58
2023-07-06T09:55:02.854Z,42.70
2023-07-06T09:57:36.698Z,43.15
2023-07-06T10:04:36.549Z,43.30
2023-07-06T10:07:15.918Z,43.27
2023-07-06T10:09:55.910Z,43.00
2023-07-06T10:12:39.583Z,42.84
2023-07-06T10:15:18.406Z,42.21
2023-07-06T10:17:52.750Z,42.31
2023-07-06T10:20:30.421Z,42.84
2023-07-06T10:23:19.355Z,42.76
2023-07-06T10:26:01.421Z,42.59
2023-07-06T10:28:39.468Z,42.53
2023-07-06T10:31:17.780Z,42.72
2023-07-06T10:33:56.299Z,41.61
2023-07-06T10:36:34.302Z,41.49
2023-07-06T10:39:34.513Z,41.48
2023-07-06T10:42:11.326Z,41.27
2023-07-06T10:44:52.202Z,41.61
2023-07-06T10:47:39.916Z,41.34
2023-07-06T10:50:30.064Z,41.54
2023-07-06T10:53:11.982Z,41.32
2023-07-06T10:55:42.890Z,41.03
2023-07-06T10:58:31.452Z,39.97
2023-07-06T11:01:07.515Z,39.52
2023-07-06T11:03:39.164Z,39.49
2023-07-06T11:06:12.737Z,39.63
2023-07-06T11:09:23.143Z,40.24
2023-07-06T11:12:17.856Z,40.02
2023-07-06T11:14:49.751Z,40.01
2023-07-06T11:17:29.514Z,40.60
2023-07-06T11:20:04.338Z,40.77
2023-07-06T11:22:36.973Z,41.08
2023-07-06T11:25:13.133Z,41.64
2023-07-06T11:27:46.979Z,42.13
2023-07-06T11:30:23.826Z,41.36
2023-07-06T11:33:11.913Z,40.84
2023-07-06T11:36:00.306Z,40.36
2023-07-06T11:39:01.820Z,40.30
2023-07-06T11:41:44.066Z,40.12
2023-07-06T11:44:30.006Z,40.32
2023-07-06T11:47:20.324Z,40.23
2023-07-06T11:50:00.439Z,39.50
2023-07-06T11:52:35.818Z,39.10
2023-07-06T11:55:19.776Z,38.78
2023-07-06T11:57:55.636Z,38.27
2023-07-06T12:00:39.333Z,37.95
2023-07-06T12:03:11.564Z,38.02
2023-07-06T12:05:46.176Z,37.74
2023-07-06T12:08:21.253Z,38.23
2023-07-06T12:10:53.986Z,37.82
2023-07-06T12:13:29.050Z,37.53
2023-07-06T12:16:08.600Z,37.58
2023-07-06T12:18:40.038Z,38.44
2023-07-06T12:21:32.209Z,37.88
2023-07-06T12:24:04.503Z,38.09
2023-07-06T12:26:36.298Z,36.45
2023-07-06T12:29:18.881Z,35.50
2023-07-06T12:31:54.320Z,36.38
2023-07-06T12:34:31.616Z,36.44
2023-07-06T12:37:03.972Z,36.89
2023-07-06T12:39:42.048Z,36.93
2023-07-06T12:42:15.433Z,36.22
2023-07-06T12:44:47.342Z,36.18
2023-07-06T12:47:29.833Z,36.32
2023-07-06T12:50:06.444Z,35.84
2023-07-06T12:52:39.919Z,35.72
2023-07-06T12:55:17.955Z,35.97
2023-07-06T12:57:51.220Z,35.70
2023-07-06T13:00:27.742Z,35.71
2023-07-06T13:03:01.411Z,36.04
2023-07-06T13:05:33.955Z,35.78
2023-07-06T13:08:10.528Z,35.99
2023-07-06T13:10:44.600Z,35.96
2023-07-06T13:13:22.423Z,35.74
2023-07-06T13:16:02.485Z,35.64
2023-07-06T13:18:34.092Z,34.96
2023-07-06T13:21:06.774Z,34.50
2023-07-06T13:23:38.839Z,34.50
2023-07-06T13:26:09.522Z,34.64
2023-07-06T13:28:40.631Z,35.00
2023-07-06T13:31:15.847Z,35.10
2023-07-06T13:33:47.338Z,35.57
2023-07-06T13:36:19.769Z,34.85
2023-07-06T13:38:51.112Z,35.54
2023-07-06T13:41:21.429Z,35.82
2023-07-06T13:43:51.267Z,36.54
2023-07-06T13:46:22.219Z,36.04
2023-07-06T13:48:53.583Z,35.39
2023-07-06T13:51:24.462Z,35.05
2023-07-06T13:53:55.970Z,34.25
2023-07-06T13:56:27.610Z,33.52
2023-07-06T13:58:58.566Z,33.90
2023-07-06T14:01:29.280Z,34.77
2023-07-06T14:04:00.094Z,34.53
2023-07-06T14:06:31.225Z,34.55
2023-07-06T14:09:02.052Z,35.28
2023-07-06T14:11:32.752Z,35.18
2023-07-06T14:14:03.575Z,36.16
2023-07-06T14:16:37.678Z,36.53
2023-07-06T14:19:08.600Z,35.72
2023-07-06T14:21:39.259Z,35.95
2023-07-06T14:24:10.649Z,35.73
2023-07-06T14:26:39.788Z,34.55
2023-07-06T14:29:10.390Z,34.78
2023-07-06T14:31:40.964Z,36.39
2023-07-06T14:34:11.873Z,36.30
2023-07-06T14:36:42.516Z,35.72
2023-07-06T14:39:13.466Z,34.39
2023-07-06T14:41:44.146Z,33.87
2023-07-06T14:44:14.892Z,33.95
2023-07-06T14:46:45.523Z,33.22
2023-07-06T14:49:16.191Z,33.06
2023-07-06T14:51:47.050Z,33.49
2023-07-06T14:54:20.081Z,33.49
2023-07-06T14:56:51.024Z,33.42
2023-07-06T14:59:21.596Z,33.18
2023-07-06T15:01:52.226Z,33.17
2023-07-06T15:04:22.727Z,32.91
2023-07-06T15:06:53.576Z,32.68
2023-07-06T15:09:24.253Z,32.37
2023-07-06T15:11:54.935Z,32.62
2023-07-06T15:14:25.553Z,32.50
2023-07-06T15:16:56.185Z,32.56
2023-07-06T15:19:26.781Z,32.58
2023-07-06T15:21:57.336Z,32.37
2023-07-06T15:24:29.195Z,32.16
2023-07-06T15:26:59.767Z,32.09
2023-07-06T15:29:30.313Z,31.89
2023-07-06T15:32:01.001Z,31.59
2023-07-06T15:34:31.560Z,31.42
2023-07-06T15:37:02.256Z,31.44
2023-07-06T15:39:32.775Z,31.39
2023-07-06T15:42:03.344Z,31.29
2023-07-06T15:44:34.233Z,30.78
2023-07-06T15:47:05.034Z,30.78
2023-07-06T15:49:35.670Z,30.97
2023-07-06T15:52:06.887Z,30.99
2023-07-06T15:54:37.514Z,29.93
2023-07-06T15:57:08.709Z,30.60
2023-07-06T15:59:39.368Z,31.02
2023-07-06T16:02:12.999Z,31.30
2023-07-06T16:04:43.676Z,31.03
2023-07-06T16:07:14.935Z,30.96
2023-07-06T16:09:45.465Z,30.97
2023-07-06T16:12:16.088Z,31.31
2023-07-06T16:14:46.750Z,30.43
2023-07-06T16:17:17.466Z,30.70
2023-07-06T16:19:48.170Z,31.34
2023-07-06T16:22:18.723Z,30.84
2023-07-06T16:24:49.364Z,29.52
2023-07-06T16:27:19.907Z,29.11
2023-07-06T16:29:50.485Z,28.74
2023-07-06T16:32:21.360Z,28.74
2023-07-06T16:34:51.923Z,28.42
2023-07-06T16:37:22.597Z,28.09
2023-07-06T16:39:53.477Z,27.97
2023-07-06T16:42:24.104Z,28.20
2023-07-06T16:44:54.766Z,27.80
2023-07-06T16:47:26.623Z,27.90
2023-07-06T16:49:57.668Z,28.04
2023-07-06T16:52:28.251Z,28.44
2023-07-06T16:54:59.219Z,28.96
2023-07-06T16:57:29.796Z,29.47
2023-07-06T17:00:00.321Z,29.38
2023-07-06T17:02:30.877Z,30.01
2023-07-06T17:05:01.725Z,30.62
2023-07-06T17:07:32.292Z,31.14
2023-07-06T17:10:03.072Z,31.38
2023-07-06T17:12:33.656Z,31.73
2023-07-06T17:15:04.582Z,32.17
2023-07-06T17:17:35.288Z,32.52
2023-07-06T17:20:07.194Z,33.13
2023-07-06T17:22:37.802Z,32.62
2023-07-06T17:25:09.786Z,32.56
2023-07-06T17:27:40.707Z,33.37
2023-07-06T17:30:12.746Z,33.65
2023-07-06T17:32:43.545Z,34.11
2023-07-06T17:35:14.237Z,34.23
2023-07-06T17:37:44.845Z,34.22
2023-07-06T17:40:15.793Z,34.61
2023-07-06T17:42:46.463Z,34.65
2023-07-06T17:45:17.387Z,35.32
2023-07-06T17:47:48.187Z,35.48
2023-07-06T17:50:18.950Z,35.37
2023-07-06T17:52:49.626Z,35.71
2023-07-06T17:55:22.480Z,36.05
2023-07-06T17:57:53.048Z,36.15
2023-07-06T18:00:23.940Z,36.36
2023-07-06T18:02:54.517Z,36.76
2023-07-06T18:05:25.145Z,37.01
2023-07-06T18:07:56.732Z,37.91
2023-07-06T18:10:27.866Z,38.04
2023-07-06T18:12:58.472Z,38.33
2023-07-06T18:15:29.664Z,38.62
2023-07-06T18:18:00.494Z,39.42
2023-07-06T18:20:31.418Z,39.39
2023-07-06T18:23:03.213Z,39.37
2023-07-06T18:25:33.811Z,39.41
2023-07-06T18:28:04.437Z,39.56
2023-07-06T18:30:35.073Z,40.08
2023-07-06T18:33:05.728Z,40.40
2023-07-06T18:35:37.160Z,40.08
2023-07-06T18:38:06.288Z,40.24
2023-07-06T18:40:37.043Z,40.62
2023-07-06T18:43:07.685Z,41.73
2023-07-06T18:45:43.078Z,41.96
2023-07-06T18:48:14.188Z,41.64
2023-07-06T18:50:46.376Z,42.17
2023-07-06T18:53:17.137Z,42.36
2023-07-06T18:55:49.970Z,42.72
2023-07-06T18:58:20.645Z,43.00
2023-07-06T19:00:51.293Z,43.38
2023-07-06T19:03:21.993Z,43.35
2023-07-06T19:05:52.709Z,43.61
2023-07-06T19:08:23.776Z,43.94
2023-07-06T19:10:55.682Z,44.26
2023-07-06T19:13:26.334Z,44.54
2023-07-06T19:16:00.376Z,44.89
2023-07-06T19:18:30.985Z,45.28
2023-07-06T19:21:02.977Z,45.46
2023-07-06T19:23:34.223Z,45.57
2023-07-06T19:26:05.389Z,45.97
2023-07-06T19:28:36.315Z,46.24
2023-07-06T19:31:07.086Z,46.32
2023-07-06T19:33:37.878Z,46.50
2023-07-06T19:36:09.543Z,46.66
2023-07-06T19:38:59.841Z,46.78
2023-07-06T19:41:36.194Z,46.95
2023-07-06T19:44:15.564Z,47.26
2023-07-06T19:46:48.361Z,47.38
2023-07-06T19:52:44.640Z,47.90
2023-07-06T19:55:24.978Z,47.93
2023-07-06T19:57:59.260Z,48.19
2023-07-06T20:00:34.505Z,48.21
2023-07-06T20:03:05.398Z,48.44
2023-07-06T20:05:37.703Z,48.70
2023-07-06T20:08:08.597Z,48.75
2023-07-06T20:10:39.225Z,48.90
2023-07-06T20:13:12.186Z,49.16
2023-07-06T20:15:44.817Z,49.18
2023-07-06T20:18:16.576Z,49.34
2023-07-06T20:20:49.932Z,49.48
2023-07-06T20:23:20.909Z,49.52
2023-07-06T20:25:51.699Z,49.63
2023-07-06T20:28:22.325Z,49.76
2023-07-06T20:30:52.992Z,50.06
2023-07-06T20:33:23.837Z,50.32
2023-07-06T20:35:54.397Z,50.38
2023-07-06T20:38:25.072Z,50.65
2023-07-06T20:40:56.554Z,50.58
2023-07-06T20:43:31.822Z,50.58
2023-07-06T20:46:05.034Z,50.49
2023-07-06T20:48:35.814Z,50.52
2023-07-06T20:51:06.526Z,50.58
2023-07-06T20:53:37.038Z,50.72
2023-07-06T20:56:08.261Z,50.76
2023-07-06T20:58:38.920Z,51.02
2023-07-06T21:01:09.444Z,51.19
2023-07-06T21:03:40.078Z,51.34
2023-07-06T21:06:14.093Z,51.49
2023-07-06T21:08:45.002Z,51.63
2023-07-06T21:11:16.773Z,51.89
2023-07-06T21:13:47.369Z,51.98
2023-07-06T21:16:38.756Z,52.17
2023-07-06T21:19:10.864Z,52.33
2023-07-06T21:21:42.031Z,52.32
2023-07-06T21:24:26.176Z,52.58
2023-07-06T21:26:55.244Z,52.70
2023-07-06T21:29:26.041Z,52.82
2023-07-06T21:31:57.304Z,52.92
2023-07-06T21:34:28.055Z,52.99
2023-07-06T21:36:58.717Z,53.03
2023-07-06T21:39:29.317Z,53.03
2023-07-06T21:42:02.369Z,53.17
2023-07-06T21:44:33.009Z,53.28
2023-07-06T21:47:03.982Z,53.40
2023-07-06T21:49:34.521Z,53.57
2023-07-06T21:52:05.919Z,53.63
2023-07-06T21:54:36.578Z,53.65
2023-07-06T21:57:08.399Z,53.89
2023-07-06T21:59:38.966Z,54.14
2023-07-06T22:02:09.917Z,54.23
2023-07-06T22:04:40.713Z,54.43
2023-07-06T22:07:11.363Z,54.60
2023-07-06T22:09:42.557Z,54.71
2023-07-06T22:12:13.500Z,54.85
2023-07-06T22:14:44.076Z,54.94
2023-07-06T22:17:14.677Z,55.04
2023-07-06T22:19:45.304Z,55.07
2023-07-06T22:22:15.936Z,55.32
2023-07-06T22:24:46.524Z,55.38
2023-07-06T22:27:17.439Z,55.56
2023-07-06T22:29:48.143Z,55.65
2023-07-06T22:32:18.755Z,55.78
2023-07-06T22:34:49.429Z,55.94
2023-07-06T22:37:20.245Z,56.16
2023-07-06T22:39:50.909Z,56.24
2023-07-06T22:42:21.680Z,56.45
2023-07-06T22:44:52.312Z,56.60
2023-07-06T22:47:23.031Z,56.70
2023-07-06T22:49:53.634Z,56.84
2023-07-06T22:52:24.184Z,56.97
2023-07-06T22:54:54.918Z,57.10
2023-07-06T22:57:25.634Z,57.22
2023-07-06T22:59:57.057Z,57.37
2023-07-06T23:02:28.082Z,57.53
2023-07-06T23:05:03.656Z,57.52
2023-07-06T23:07:35.004Z,57.78
2023-07-06T23:10:06.688Z,57.94
2023-07-06T23:12:40.485Z,57.96
2023-07-06T23:15:13.434Z,58.15
2023-07-06T23:17:44.407Z,58.00
2023-07-06T23:20:16.004Z,58.34
2023-07-06T23:22:46.707Z,58.53
2023-07-06T23:25:18.972Z,58.62
2023-07-06T23:27:50.796Z,58.81
2023-07-06T23:30:22.387Z,58.99
2023-07-06T23:32:53.939Z,59.17
2023-07-06T23:35:24.663Z,59.26
2023-07-06T23:37:57.916Z,59.32
2023-07-06T23:40:28.651Z,59.32
2023-07-06T23:42:59.228Z,59.25
2023-07-06T23:45:30.077Z,59.40
2023-07-06T23:48:02.160Z,59.57
2023-07-06T23:50:32.832Z,59.64
2023-07-06T23:53:03.586Z,59.68
2023-07-06T23:55:34.290Z,59.67
2023-07-06T23:58:05.052Z,59.83
